WZZ41W LUKK-LHBP
Flight info
| Callsign | WZZ41W |
|---|---|
| Flight time | N/A |
| Altitude | 34000 |
| Route | NUNTA DCT OBARA DCT BUDOP DCT KEZAL |
| Aircraft | A320/M-SDE3FGHIRWY/LB1 |
Departure
| Time | 2026-05-06 18:32 |
|---|---|
| Airport | Chişinău International Airport (LUKK) |
Arrival
| Time | N/A |
|---|---|
| Airport | Budapest Liszt Ferenc International Airport (LHBP) |
| Time | Latitude | Longitude | Altitude | Speed | Heading |
|---|---|---|---|---|---|
| 2026-05-06 18:10 | 46.93375 | 28.93603 | 408 ft | 0 kts | 6° |
| 2026-05-06 18:12 | 46.93371 | 28.93602 | 408 ft | 0 kts | 7° |
| 2026-05-06 18:24 | 46.93378 | 28.93603 | 408 ft | 3 kts | 7° |
| 2026-05-06 18:25 | 46.93405 | 28.93588 | 408 ft | 6 kts | 312° |
| 2026-05-06 18:25 | 46.93416 | 28.93519 | 408 ft | 8 kts | 264° |
| 2026-05-06 18:25 | 46.93368 | 28.93482 | 408 ft | 9 kts | 187° |
| 2026-05-06 18:25 | 46.93298 | 28.93469 | 407 ft | 11 kts | 186° |
| 2026-05-06 18:26 | 46.93216 | 28.93454 | 409 ft | 13 kts | 187° |
| 2026-05-06 18:26 | 46.93148 | 28.93492 | 411 ft | 12 kts | 110° |
| 2026-05-06 18:26 | 46.93136 | 28.93620 | 410 ft | 14 kts | 96° |
| 2026-05-06 18:26 | 46.93122 | 28.93780 | 407 ft | 17 kts | 97° |
| 2026-05-06 18:27 | 46.93106 | 28.93966 | 407 ft | 19 kts | 97° |
| 2026-05-06 18:27 | 46.93089 | 28.94176 | 405 ft | 22 kts | 98° |
| 2026-05-06 18:27 | 46.93069 | 28.94407 | 406 ft | 23 kts | 96° |
| 2026-05-06 18:27 | 46.93048 | 28.94648 | 407 ft | 25 kts | 97° |
| 2026-05-06 18:28 | 46.93028 | 28.94900 | 410 ft | 25 kts | 97° |
| 2026-05-06 18:28 | 46.93010 | 28.95086 | 406 ft | 5 kts | 107° |
| 2026-05-06 18:28 | 46.92977 | 28.95112 | 410 ft | 7 kts | 175° |
| 2026-05-06 18:28 | 46.92968 | 28.95112 | 410 ft | 0 kts | 178° |
| 2026-05-06 18:29 | 46.92967 | 28.95112 | 410 ft | 1 kts | 178° |
| 2026-05-06 18:29 | 46.92945 | 28.95113 | 409 ft | 6 kts | 178° |
| 2026-05-06 18:30 | 46.92911 | 28.95115 | 409 ft | 8 kts | 178° |
| 2026-05-06 18:30 | 46.92847 | 28.95111 | 409 ft | 10 kts | 201° |
| 2026-05-06 18:30 | 46.92818 | 28.95060 | 407 ft | 5 kts | 266° |
| 2026-05-06 18:30 | 46.92820 | 28.95024 | 409 ft | 1 kts | 270° |
| 2026-05-06 18:31 | 46.92819 | 28.95007 | 409 ft | 3 kts | 266° |
| 2026-05-06 18:31 | 46.92818 | 28.94970 | 409 ft | 5 kts | 268° |
| 2026-05-06 18:31 | 46.92817 | 28.94911 | 409 ft | 7 kts | 268° |
| 2026-05-06 18:31 | 46.92811 | 28.94639 | 408 ft | 66 kts | 269° |
| 2026-05-06 18:32 | 46.92789 | 28.93572 | 409 ft | 140 kts | 268° |
| 2026-05-06 18:32 | 46.92758 | 28.91899 | 618 ft | 181 kts | 268° |
| 2026-05-06 18:32 | 46.92746 | 28.89909 | 1157 ft | 208 kts | 265° |
| 2026-05-06 18:32 | 46.92694 | 28.87683 | 1634 ft | 231 kts | 264° |
| 2026-05-06 18:33 | 46.92628 | 28.85243 | 2188 ft | 246 kts | 264° |
| 2026-05-06 18:33 | 46.92566 | 28.82715 | 3041 ft | 251 kts | 265° |
| 2026-05-06 18:33 | 46.92508 | 28.80137 | 3874 ft | 256 kts | 266° |
| 2026-05-06 18:33 | 46.92452 | 28.77501 | 4668 ft | 262 kts | 266° |
| 2026-05-06 18:34 | 46.92393 | 28.74810 | 5448 ft | 269 kts | 267° |
| 2026-05-06 18:34 | 46.92343 | 28.72023 | 6144 ft | 279 kts | 271° |
| 2026-05-06 18:34 | 46.92610 | 28.69190 | 6850 ft | 285 kts | 284° |
| 2026-05-06 18:34 | 46.93159 | 28.66421 | 7588 ft | 288 kts | 289° |
| 2026-05-06 18:35 | 46.93825 | 28.63640 | 8373 ft | 291 kts | 291° |
| 2026-05-06 18:35 | 46.94521 | 28.60833 | 9151 ft | 295 kts | 291° |
| 2026-05-06 18:35 | 46.95206 | 28.57990 | 9916 ft | 298 kts | 290° |
| 2026-05-06 18:35 | 46.95880 | 28.55073 | 10414 ft | 311 kts | 289° |
| 2026-05-06 18:36 | 46.96576 | 28.51960 | 10596 ft | 332 kts | 289° |
| 2026-05-06 18:36 | 46.97288 | 28.48687 | 11091 ft | 341 kts | 288° |
| 2026-05-06 18:36 | 46.97999 | 28.45351 | 11689 ft | 346 kts | 288° |
| 2026-05-06 18:36 | 46.98712 | 28.41961 | 12315 ft | 350 kts | 288° |
| 2026-05-06 18:37 | 46.99432 | 28.38518 | 12946 ft | 355 kts | 288° |
| 2026-05-06 18:37 | 47.00149 | 28.35102 | 13626 ft | 357 kts | 288° |
| 2026-05-06 18:37 | 47.00884 | 28.31599 | 14200 ft | 361 kts | 288° |
| 2026-05-06 18:37 | 47.01625 | 28.28070 | 14809 ft | 363 kts | 288° |
| 2026-05-06 18:38 | 47.02370 | 28.24526 | 15419 ft | 365 kts | 288° |
| 2026-05-06 18:38 | 47.03123 | 28.20946 | 15973 ft | 369 kts | 288° |
| 2026-05-06 18:38 | 47.03880 | 28.17337 | 16507 ft | 372 kts | 288° |
| 2026-05-06 18:38 | 47.04641 | 28.13700 | 17068 ft | 376 kts | 288° |
| 2026-05-06 18:39 | 47.05408 | 28.10014 | 17608 ft | 379 kts | 288° |
| 2026-05-06 18:39 | 47.06178 | 28.06305 | 18184 ft | 382 kts | 288° |
| 2026-05-06 18:39 | 47.06957 | 28.02570 | 18718 ft | 385 kts | 288° |
| 2026-05-06 18:40 | 47.08515 | 27.95068 | 19809 ft | 389 kts | 288° |
| 2026-05-06 18:40 | 47.09308 | 27.91214 | 20349 ft | 391 kts | 288° |
| 2026-05-06 18:40 | 47.10055 | 27.87409 | 20854 ft | 395 kts | 283° |
| 2026-05-06 18:40 | 47.10431 | 27.83406 | 21341 ft | 399 kts | 273° |
| 2026-05-06 18:41 | 47.10464 | 27.79311 | 21833 ft | 402 kts | 271° |
| 2026-05-06 18:41 | 47.10488 | 27.75211 | 22392 ft | 403 kts | 271° |
| 2026-05-06 18:41 | 47.10518 | 27.71094 | 22932 ft | 404 kts | 272° |
| 2026-05-06 18:41 | 47.10550 | 27.66958 | 23424 ft | 407 kts | 271° |
| 2026-05-06 18:42 | 47.10581 | 27.62792 | 23858 ft | 409 kts | 272° |
| 2026-05-06 18:42 | 47.10613 | 27.58601 | 24261 ft | 412 kts | 272° |
| 2026-05-06 18:42 | 47.10642 | 27.54390 | 24673 ft | 413 kts | 272° |
| 2026-05-06 18:42 | 47.10668 | 27.50162 | 25078 ft | 415 kts | 272° |
| 2026-05-06 18:43 | 47.10692 | 27.45920 | 25463 ft | 417 kts | 272° |
| 2026-05-06 18:43 | 47.10712 | 27.41654 | 25841 ft | 419 kts | 272° |
| 2026-05-06 18:43 | 47.10729 | 27.37362 | 26219 ft | 421 kts | 272° |
| 2026-05-06 18:43 | 47.10743 | 27.33052 | 26574 ft | 422 kts | 271° |
| 2026-05-06 18:44 | 47.10755 | 27.28734 | 26987 ft | 423 kts | 271° |
| 2026-05-06 18:44 | 47.10766 | 27.24459 | 27366 ft | 424 kts | 271° |
| 2026-05-06 18:44 | 47.10774 | 27.20230 | 27718 ft | 426 kts | 271° |
| 2026-05-06 18:44 | 47.10783 | 27.15758 | 28080 ft | 428 kts | 271° |
| 2026-05-06 18:45 | 47.10792 | 27.11380 | 28447 ft | 430 kts | 272° |
| 2026-05-06 18:45 | 47.10802 | 27.06976 | 28815 ft | 431 kts | 272° |
| 2026-05-06 18:45 | 47.10810 | 27.02570 | 29162 ft | 433 kts | 272° |
| 2026-05-06 18:45 | 47.10813 | 26.98145 | 29500 ft | 435 kts | 271° |
| 2026-05-06 18:46 | 47.10811 | 26.93692 | 29824 ft | 437 kts | 271° |
| 2026-05-06 18:46 | 47.10805 | 26.89296 | 30231 ft | 436 kts | 271° |
| 2026-05-06 18:46 | 47.10800 | 26.84861 | 30659 ft | 433 kts | 271° |
| 2026-05-06 18:46 | 47.10799 | 26.80449 | 31120 ft | 431 kts | 272° |
| 2026-05-06 18:47 | 47.10798 | 26.76065 | 31575 ft | 428 kts | 272° |
| 2026-05-06 18:47 | 47.10795 | 26.71702 | 32034 ft | 426 kts | 272° |
| 2026-05-06 18:47 | 47.10789 | 26.67365 | 32490 ft | 424 kts | 272° |
| 2026-05-06 18:47 | 47.10778 | 26.63048 | 32943 ft | 421 kts | 272° |
| 2026-05-06 18:48 | 47.10763 | 26.58761 | 33397 ft | 419 kts | 272° |
| 2026-05-06 18:48 | 47.10748 | 26.54488 | 33838 ft | 418 kts | 272° |
| 2026-05-06 18:48 | 47.10736 | 26.50232 | 33961 ft | 418 kts | 272° |
| 2026-05-06 18:49 | 47.10709 | 26.41691 | 33984 ft | 418 kts | 272° |
| 2026-05-06 18:49 | 47.10670 | 26.33253 | 33990 ft | 415 kts | 271° |
| 2026-05-06 18:50 | 47.10621 | 26.24782 | 33997 ft | 415 kts | 271° |
| 2026-05-06 18:50 | 47.10565 | 26.16327 | 33997 ft | 413 kts | 271° |
| 2026-05-06 18:51 | 47.10506 | 26.07891 | 33997 ft | 413 kts | 271° |
| 2026-05-06 18:51 | 47.10440 | 25.99449 | 34014 ft | 413 kts | 271° |
| 2026-05-06 18:52 | 47.10369 | 25.91070 | 34018 ft | 413 kts | 271° |
| 2026-05-06 18:52 | 47.10292 | 25.82655 | 34024 ft | 412 kts | 271° |
| 2026-05-06 18:53 | 47.10211 | 25.74242 | 34023 ft | 412 kts | 271° |
| 2026-05-06 18:53 | 47.10126 | 25.65843 | 34031 ft | 412 kts | 271° |
| 2026-05-06 18:54 | 47.10035 | 25.57443 | 34035 ft | 412 kts | 271° |
| 2026-05-06 18:54 | 47.09929 | 25.49040 | 34032 ft | 412 kts | 271° |
| 2026-05-06 18:55 | 47.09823 | 25.40692 | 34033 ft | 411 kts | 271° |
| 2026-05-06 18:55 | 47.09711 | 25.32306 | 34030 ft | 411 kts | 271° |
| 2026-05-06 18:56 | 47.09596 | 25.23927 | 34039 ft | 410 kts | 271° |
| 2026-05-06 18:56 | 47.09470 | 25.15565 | 34039 ft | 409 kts | 271° |
| 2026-05-06 18:57 | 47.09336 | 25.07198 | 34030 ft | 409 kts | 271° |
| 2026-05-06 18:57 | 47.09197 | 24.98853 | 34029 ft | 409 kts | 271° |
| 2026-05-06 18:58 | 47.09058 | 24.90511 | 34010 ft | 408 kts | 271° |
| 2026-05-06 18:58 | 47.08914 | 24.82188 | 34006 ft | 408 kts | 271° |
| 2026-05-06 18:59 | 47.08757 | 24.73852 | 33996 ft | 409 kts | 271° |
| 2026-05-06 18:59 | 47.08591 | 24.65518 | 33991 ft | 408 kts | 271° |
| 2026-05-06 19:00 | 47.08426 | 24.57250 | 33972 ft | 408 kts | 271° |
| 2026-05-06 19:00 | 47.08258 | 24.48936 | 33982 ft | 407 kts | 271° |
| 2026-05-06 19:01 | 47.08081 | 24.40632 | 33971 ft | 407 kts | 271° |
| 2026-05-06 19:01 | 47.07894 | 24.32336 | 33968 ft | 407 kts | 271° |
| 2026-05-06 19:02 | 47.07704 | 24.24042 | 33970 ft | 407 kts | 271° |
| 2026-05-06 19:02 | 47.07512 | 24.15740 | 33971 ft | 407 kts | 271° |
| 2026-05-06 19:03 | 47.07314 | 24.07456 | 33966 ft | 407 kts | 271° |
| 2026-05-06 19:03 | 47.07103 | 23.99165 | 33968 ft | 406 kts | 271° |
| 2026-05-06 19:04 | 47.06887 | 23.90880 | 33970 ft | 406 kts | 270° |
| 2026-05-06 19:04 | 47.06665 | 23.82598 | 33976 ft | 406 kts | 270° |
| 2026-05-06 19:05 | 47.06440 | 23.74326 | 33969 ft | 406 kts | 270° |
| 2026-05-06 19:05 | 47.06207 | 23.66060 | 33975 ft | 406 kts | 270° |
| 2026-05-06 19:06 | 47.05972 | 23.57818 | 33964 ft | 411 kts | 270° |
| 2026-05-06 19:06 | 47.05723 | 23.49264 | 33965 ft | 426 kts | 269° |
| 2026-05-06 19:07 | 47.05456 | 23.40527 | 33968 ft | 429 kts | 269° |
| 2026-05-06 19:07 | 47.05184 | 23.31769 | 33968 ft | 430 kts | 269° |
| 2026-05-06 19:08 | 47.04907 | 23.23065 | 33971 ft | 430 kts | 269° |
| 2026-05-06 19:08 | 47.04625 | 23.14369 | 33985 ft | 430 kts | 268° |
| 2026-05-06 19:09 | 47.04332 | 23.05607 | 33982 ft | 429 kts | 268° |
| 2026-05-06 19:09 | 47.04031 | 22.96867 | 33990 ft | 429 kts | 268° |
| 2026-05-06 19:10 | 47.03727 | 22.88128 | 33992 ft | 429 kts | 268° |
| 2026-05-06 19:10 | 47.03418 | 22.79381 | 33979 ft | 429 kts | 268° |
| 2026-05-06 19:11 | 47.03201 | 22.70630 | 33986 ft | 429 kts | 274° |
| 2026-05-06 19:11 | 47.03719 | 22.61979 | 33982 ft | 429 kts | 275° |
| 2026-05-06 19:12 | 47.04238 | 22.53249 | 33969 ft | 429 kts | 275° |
| 2026-05-06 19:12 | 47.04740 | 22.44518 | 33966 ft | 430 kts | 275° |
| 2026-05-06 19:13 | 47.05238 | 22.35760 | 33959 ft | 430 kts | 275° |
| 2026-05-06 19:13 | 47.05728 | 22.27058 | 33968 ft | 430 kts | 274° |
| 2026-05-06 19:14 | 47.06225 | 22.18294 | 33960 ft | 430 kts | 274° |
| 2026-05-06 19:14 | 47.06710 | 22.09528 | 33965 ft | 431 kts | 274° |
| 2026-05-06 19:15 | 47.07182 | 22.00772 | 33965 ft | 430 kts | 274° |
| 2026-05-06 19:15 | 47.07650 | 21.92078 | 33964 ft | 430 kts | 274° |
| 2026-05-06 19:16 | 47.08112 | 21.83323 | 33962 ft | 430 kts | 274° |
| 2026-05-06 19:16 | 47.08563 | 21.74554 | 33956 ft | 430 kts | 274° |
| 2026-05-06 19:17 | 47.09006 | 21.65800 | 33948 ft | 430 kts | 274° |
| 2026-05-06 19:17 | 47.09443 | 21.57099 | 33953 ft | 430 kts | 274° |
| 2026-05-06 19:18 | 47.09887 | 21.48343 | 33941 ft | 430 kts | 274° |
| 2026-05-06 19:18 | 47.10314 | 21.39586 | 33952 ft | 430 kts | 273° |
| 2026-05-06 19:19 | 47.10733 | 21.30825 | 33935 ft | 430 kts | 273° |
| 2026-05-06 19:19 | 47.10945 | 21.26442 | 33716 ft | 430 kts | 273° |
| 2026-05-06 19:19 | 47.11153 | 21.22108 | 33340 ft | 420 kts | 273° |
| 2026-05-06 19:19 | 47.11352 | 21.17877 | 33065 ft | 411 kts | 273° |
| 2026-05-06 19:20 | 47.11542 | 21.13748 | 32792 ft | 402 kts | 273° |
| 2026-05-06 19:20 | 47.11728 | 21.09701 | 32527 ft | 393 kts | 273° |
| 2026-05-06 19:20 | 47.11908 | 21.05730 | 32262 ft | 387 kts | 273° |
| 2026-05-06 19:20 | 47.12084 | 21.01809 | 32010 ft | 385 kts | 272° |
| 2026-05-06 19:21 | 47.12259 | 20.97894 | 31749 ft | 384 kts | 272° |
| 2026-05-06 19:21 | 47.12375 | 20.95310 | 31582 ft | 383 kts | 272° |
| 2026-05-06 19:21 | 47.12549 | 20.91411 | 31327 ft | 382 kts | 272° |
| 2026-05-06 19:21 | 47.12719 | 20.87521 | 31077 ft | 381 kts | 272° |
| 2026-05-06 19:22 | 47.12886 | 20.83694 | 30830 ft | 380 kts | 272° |
| 2026-05-06 19:22 | 47.13051 | 20.79822 | 30580 ft | 380 kts | 272° |
| 2026-05-06 19:22 | 47.13215 | 20.75958 | 30340 ft | 379 kts | 272° |
| 2026-05-06 19:22 | 47.13379 | 20.72104 | 30110 ft | 376 kts | 272° |
| 2026-05-06 19:23 | 47.13541 | 20.68288 | 29731 ft | 373 kts | 272° |
| 2026-05-06 19:23 | 47.13701 | 20.64504 | 29339 ft | 369 kts | 272° |
| 2026-05-06 19:23 | 47.13859 | 20.60794 | 28962 ft | 367 kts | 272° |
| 2026-05-06 19:23 | 47.14017 | 20.57071 | 28596 ft | 364 kts | 272° |
| 2026-05-06 19:24 | 47.14169 | 20.53374 | 28234 ft | 362 kts | 272° |
| 2026-05-06 19:24 | 47.14318 | 20.49693 | 27864 ft | 359 kts | 272° |
| 2026-05-06 19:24 | 47.14466 | 20.46046 | 27500 ft | 357 kts | 272° |
| 2026-05-06 19:24 | 47.14612 | 20.42424 | 27142 ft | 354 kts | 272° |
| 2026-05-06 19:25 | 47.14758 | 20.38825 | 26780 ft | 351 kts | 272° |
| 2026-05-06 19:25 | 47.14898 | 20.35256 | 26416 ft | 349 kts | 271° |
| 2026-05-06 19:25 | 47.15032 | 20.31718 | 26057 ft | 346 kts | 271° |
| 2026-05-06 19:25 | 47.15180 | 20.28204 | 25665 ft | 344 kts | 275° |
| 2026-05-06 19:26 | 47.15684 | 20.24765 | 25266 ft | 345 kts | 287° |
| 2026-05-06 19:26 | 47.16690 | 20.21563 | 24865 ft | 347 kts | 299° |
| 2026-05-06 19:26 | 47.18156 | 20.18733 | 24452 ft | 350 kts | 310° |
| 2026-05-06 19:26 | 47.19826 | 20.16125 | 24026 ft | 350 kts | 310° |
| 2026-05-06 19:27 | 47.21477 | 20.13539 | 23605 ft | 351 kts | 310° |
| 2026-05-06 19:27 | 47.23168 | 20.10882 | 23116 ft | 351 kts | 310° |
| 2026-05-06 19:27 | 47.24814 | 20.08293 | 22682 ft | 349 kts | 310° |
| 2026-05-06 19:27 | 47.26467 | 20.05684 | 22249 ft | 348 kts | 310° |
| 2026-05-06 19:28 | 47.28073 | 20.03149 | 21825 ft | 346 kts | 310° |
| 2026-05-06 19:28 | 47.29752 | 20.00497 | 21384 ft | 345 kts | 310° |
| 2026-05-06 19:28 | 47.31388 | 19.97915 | 20965 ft | 344 kts | 310° |
| 2026-05-06 19:28 | 47.33016 | 19.95335 | 20537 ft | 343 kts | 309° |
| 2026-05-06 19:29 | 47.34634 | 19.92763 | 20127 ft | 341 kts | 309° |
| 2026-05-06 19:29 | 47.36247 | 19.90196 | 19711 ft | 340 kts | 309° |
| 2026-05-06 19:29 | 47.37858 | 19.87635 | 19299 ft | 340 kts | 309° |
| 2026-05-06 19:29 | 47.39465 | 19.85080 | 18886 ft | 339 kts | 309° |
| 2026-05-06 19:30 | 47.41015 | 19.82602 | 18494 ft | 338 kts | 309° |
| 2026-05-06 19:30 | 47.42645 | 19.79957 | 18061 ft | 338 kts | 308° |
| 2026-05-06 19:30 | 47.44214 | 19.77381 | 17626 ft | 336 kts | 308° |
| 2026-05-06 19:30 | 47.45770 | 19.74819 | 17219 ft | 334 kts | 308° |
| 2026-05-06 19:31 | 47.47315 | 19.72277 | 16818 ft | 332 kts | 308° |
| 2026-05-06 19:31 | 47.48858 | 19.69747 | 16419 ft | 330 kts | 308° |
| 2026-05-06 19:31 | 47.51893 | 19.64768 | 15643 ft | 326 kts | 308° |
| 2026-05-06 19:32 | 47.53407 | 19.62275 | 15257 ft | 325 kts | 309° |
| 2026-05-06 19:32 | 47.54917 | 19.59791 | 14864 ft | 324 kts | 309° |
| 2026-05-06 19:32 | 47.56423 | 19.57310 | 14457 ft | 324 kts | 308° |
| 2026-05-06 19:32 | 47.57932 | 19.54823 | 14037 ft | 324 kts | 308° |
| 2026-05-06 19:33 | 47.59423 | 19.52368 | 13890 ft | 316 kts | 308° |
| 2026-05-06 19:33 | 47.60793 | 19.49884 | 13906 ft | 308 kts | 295° |
| 2026-05-06 19:33 | 47.61469 | 19.46959 | 13682 ft | 295 kts | 272° |
| 2026-05-06 19:33 | 47.61264 | 19.44020 | 13075 ft | 283 kts | 248° |
| 2026-05-06 19:34 | 47.60294 | 19.41542 | 12430 ft | 277 kts | 226° |
| 2026-05-06 19:34 | 47.58887 | 19.39591 | 11770 ft | 276 kts | 221° |
| 2026-05-06 19:34 | 47.57470 | 19.37683 | 11217 ft | 276 kts | 221° |
| 2026-05-06 19:34 | 47.56051 | 19.35765 | 10903 ft | 274 kts | 222° |
| 2026-05-06 19:35 | 47.54641 | 19.33949 | 10779 ft | 264 kts | 213° |
| 2026-05-06 19:35 | 47.52982 | 19.33073 | 10655 ft | 257 kts | 185° |
| 2026-05-06 19:35 | 47.51258 | 19.33558 | 10387 ft | 262 kts | 156° |
| 2026-05-06 19:35 | 47.49824 | 19.35347 | 10005 ft | 271 kts | 137° |
| 2026-05-06 19:36 | 47.48554 | 19.37409 | 9594 ft | 273 kts | 137° |
| 2026-05-06 19:36 | 47.47290 | 19.39470 | 9271 ft | 267 kts | 137° |
| 2026-05-06 19:36 | 47.46049 | 19.41494 | 8710 ft | 265 kts | 137° |
| 2026-05-06 19:36 | 47.44811 | 19.43505 | 8170 ft | 262 kts | 137° |
| 2026-05-06 19:37 | 47.43580 | 19.45498 | 7626 ft | 261 kts | 137° |
| 2026-05-06 19:37 | 47.42363 | 19.47461 | 7147 ft | 258 kts | 137° |
| 2026-05-06 19:37 | 47.41155 | 19.49402 | 6663 ft | 255 kts | 137° |
| 2026-05-06 19:37 | 47.39961 | 19.51320 | 6244 ft | 252 kts | 137° |
| 2026-05-06 19:38 | 47.38782 | 19.53217 | 5786 ft | 249 kts | 137° |
| 2026-05-06 19:38 | 47.37595 | 19.55060 | 5345 ft | 245 kts | 144° |
| 2026-05-06 19:38 | 47.36135 | 19.56158 | 4888 ft | 232 kts | 172° |
| 2026-05-06 19:38 | 47.34564 | 19.56105 | 4373 ft | 224 kts | 199° |
| 2026-05-06 19:39 | 47.33260 | 19.55072 | 4084 ft | 211 kts | 221° |
| 2026-05-06 19:39 | 47.32187 | 19.53633 | 3637 ft | 208 kts | 222° |
| 2026-05-06 19:39 | 47.31126 | 19.52201 | 3173 ft | 206 kts | 223° |
| 2026-05-06 19:39 | 47.30365 | 19.50454 | 2698 ft | 207 kts | 259° |
| 2026-05-06 19:40 | 47.30616 | 19.48449 | 2705 ft | 211 kts | 300° |
| 2026-05-06 19:40 | 47.31721 | 19.46880 | 2600 ft | 229 kts | 318° |
| 2026-05-06 19:40 | 47.32754 | 19.45219 | 2496 ft | 213 kts | 296° |
| 2026-05-06 19:40 | 47.33566 | 19.43470 | 2505 ft | 205 kts | 306° |
| 2026-05-06 19:41 | 47.34495 | 19.41936 | 2530 ft | 191 kts | 307° |
| 2026-05-06 19:41 | 47.35353 | 19.40566 | 2379 ft | 173 kts | 307° |
| 2026-05-06 19:41 | 47.36117 | 19.39342 | 2204 ft | 154 kts | 306° |
| 2026-05-06 19:41 | 47.36822 | 19.38207 | 2014 ft | 147 kts | 306° |
| 2026-05-06 19:42 | 47.37507 | 19.37103 | 1838 ft | 145 kts | 306° |
| 2026-05-06 19:42 | 47.38174 | 19.36028 | 1654 ft | 144 kts | 306° |
| 2026-05-06 19:42 | 47.38853 | 19.34934 | 1458 ft | 143 kts | 307° |
| 2026-05-06 19:42 | 47.39515 | 19.33866 | 1274 ft | 143 kts | 309° |
| 2026-05-06 19:43 | 47.40192 | 19.32776 | 1076 ft | 145 kts | 309° |
| 2026-05-06 19:43 | 47.40873 | 19.31677 | 925 ft | 144 kts | 309° |
| 2026-05-06 19:43 | 47.41554 | 19.30577 | 730 ft | 146 kts | 310° |
| 2026-05-06 19:43 | 47.42236 | 19.29472 | 536 ft | 145 kts | 311° |